createdAt,value
2017-06-15T00:01:52.427Z,17.30
2017-06-15T00:06:47.924Z,17.12
2017-06-15T00:11:43.681Z,17.23
2017-06-15T00:16:39.665Z,17.09
2017-06-15T00:21:35.548Z,17.12
2017-06-15T00:26:31.466Z,16.97
2017-06-15T00:31:27.397Z,16.97
2017-06-15T00:36:22.999Z,16.97
2017-06-15T00:41:18.663Z,16.97
2017-06-15T00:46:14.554Z,16.86
2017-06-15T00:51:10.282Z,16.86
2017-06-15T00:56:07.077Z,16.94
2017-06-15T01:01:02.950Z,17.02
2017-06-15T01:05:58.513Z,16.66
2017-06-15T01:10:54.402Z,16.61
2017-06-15T01:15:51.324Z,16.64
2017-06-15T01:20:47.173Z,16.41
2017-06-15T01:25:43.105Z,16.42
2017-06-15T01:30:40.105Z,16.26
2017-06-15T01:35:36.185Z,16.29
2017-06-15T01:40:33.152Z,16.17
2017-06-15T01:45:28.678Z,16.24
2017-06-15T01:50:24.464Z,16.42
2017-06-15T01:55:21.165Z,16.21
2017-06-15T02:00:17.231Z,16.24
2017-06-15T02:05:13.240Z,16.13
2017-06-15T02:10:10.975Z,15.95
2017-06-15T02:15:07.289Z,16.16
2017-06-15T02:20:03.327Z,16.10
2017-06-15T02:24:59.046Z,15.92
2017-06-15T02:29:55.055Z,16.20
2017-06-15T02:34:51.723Z,16.16
2017-06-15T02:39:47.480Z,16.29
2017-06-15T02:44:44.443Z,16.36
2017-06-15T02:49:40.199Z,16.50
2017-06-15T02:54:36.013Z,16.68
2017-06-15T02:59:32.916Z,16.75
2017-06-15T03:04:28.379Z,16.89
2017-06-15T03:09:25.455Z,16.99
2017-06-15T03:14:20.844Z,16.81
2017-06-15T03:19:17.028Z,16.91
2017-06-15T03:24:13.556Z,16.87
2017-06-15T03:29:09.590Z,16.89
2017-06-15T03:34:06.397Z,16.87
2017-06-15T03:39:01.966Z,16.79
2017-06-15T03:43:58.007Z,16.93
2017-06-15T03:48:53.632Z,16.89
2017-06-15T03:53:50.298Z,17.01
2017-06-15T03:58:46.432Z,16.65
2017-06-15T04:03:42.324Z,16.71
2017-06-15T04:08:38.176Z,16.71
2017-06-15T04:13:33.937Z,16.76
2017-06-15T04:18:29.949Z,16.75
2017-06-15T04:23:26.978Z,16.78
2017-06-15T04:28:23.018Z,16.79
2017-06-15T04:33:19.009Z,16.68
2017-06-15T04:38:16.723Z,17.30
2017-06-15T04:43:12.713Z,18.13
2017-06-15T04:48:09.185Z,19.00
2017-06-15T04:53:05.822Z,19.66
2017-06-15T04:58:02.449Z,20.26
2017-06-15T05:02:58.795Z,20.70
2017-06-15T05:07:55.008Z,21.03
2017-06-15T05:12:51.537Z,21.50
2017-06-15T05:17:48.140Z,22.02
2017-06-15T05:22:44.543Z,22.72
2017-06-15T05:27:41.085Z,22.81
2017-06-15T05:32:37.350Z,22.35
2017-06-15T05:37:33.244Z,21.99
2017-06-15T05:42:29.257Z,22.29
2017-06-15T05:47:27.040Z,23.27
2017-06-15T05:52:23.599Z,23.46
2017-06-15T05:57:19.459Z,23.13
2017-06-15T06:02:15.353Z,22.23
2017-06-15T06:07:10.950Z,21.85
2017-06-15T06:12:06.622Z,21.29
2017-06-15T06:17:02.035Z,20.97
2017-06-15T06:21:57.591Z,20.84
2017-06-15T06:26:54.111Z,20.80
2017-06-15T06:31:49.828Z,20.99
2017-06-15T06:36:46.359Z,20.97
2017-06-15T06:41:43.544Z,21.05
2017-06-15T06:46:40.368Z,21.15
2017-06-15T06:51:36.129Z,21.07
2017-06-15T06:56:32.915Z,21.22
2017-06-15T07:01:28.911Z,21.27
2017-06-15T07:06:24.751Z,21.36
2017-06-15T07:11:21.121Z,21.64
2017-06-15T07:16:17.530Z,21.76
2017-06-15T07:21:13.756Z,21.80
2017-06-15T07:26:10.241Z,21.95
2017-06-15T07:31:07.557Z,22.10
2017-06-15T07:36:03.251Z,22.17
2017-06-15T07:40:59.470Z,22.47
2017-06-15T07:45:56.723Z,22.72
2017-06-15T07:50:55.481Z,23.06
2017-06-15T07:55:52.999Z,23.95
2017-06-15T08:00:51.530Z,25.06
2017-06-15T08:05:49.084Z,25.36
2017-06-15T08:10:45.897Z,25.51
2017-06-15T08:15:42.381Z,25.68
2017-06-15T08:20:39.435Z,26.05
2017-06-15T08:25:36.373Z,26.23
2017-06-15T08:30:32.261Z,26.16
2017-06-15T08:35:28.998Z,26.75
2017-06-15T08:40:27.176Z,26.93
2017-06-15T08:45:23.110Z,27.30
2017-06-15T08:50:19.739Z,27.20
2017-06-15T08:55:15.646Z,27.39
2017-06-15T09:00:12.010Z,27.55
2017-06-15T09:05:10.300Z,28.26
2017-06-15T09:10:07.988Z,28.89
2017-06-15T09:15:04.247Z,28.63
2017-06-15T09:20:01.720Z,28.60
2017-06-15T09:24:58.465Z,28.23
2017-06-15T09:29:54.059Z,28.56
2017-06-15T09:34:50.988Z,28.33
2017-06-15T09:39:47.385Z,28.41
2017-06-15T09:44:43.287Z,28.17
2017-06-15T09:49:39.551Z,28.45
2017-06-15T09:54:37.147Z,28.79
2017-06-15T09:59:33.227Z,28.64
2017-06-15T10:04:29.334Z,28.57
2017-06-15T10:09:25.814Z,28.67
2017-06-15T10:14:22.615Z,28.88
2017-06-15T10:19:16.414Z,28.67
2017-06-15T10:24:10.720Z,28.17
2017-06-15T10:29:06.182Z,27.98
2017-06-15T10:34:02.000Z,27.80
2017-06-15T10:38:58.705Z,27.52
2017-06-15T10:43:56.609Z,28.11
2017-06-15T10:48:53.228Z,28.41
2017-06-15T10:53:48.637Z,28.15
2017-06-15T10:58:44.019Z,27.77
2017-06-15T11:03:39.857Z,27.93
2017-06-15T11:08:36.950Z,27.93
2017-06-15T11:13:33.157Z,28.44
2017-06-15T11:18:31.787Z,28.75
2017-06-15T11:23:28.399Z,29.14
2017-06-15T11:28:26.451Z,29.38
2017-06-15T11:33:24.064Z,29.54
2017-06-15T11:38:20.861Z,30.08
2017-06-15T11:43:17.632Z,30.23
2017-06-15T11:48:14.067Z,30.43
2017-06-15T11:53:11.038Z,30.48
2017-06-15T11:58:08.439Z,30.65
2017-06-15T12:03:04.720Z,30.75
2017-06-15T12:08:00.987Z,30.53
2017-06-15T12:12:57.043Z,30.51
2017-06-15T12:17:53.163Z,30.54
2017-06-15T12:22:49.037Z,30.81
2017-06-15T12:27:45.194Z,30.81
2017-06-15T12:32:42.023Z,30.68
2017-06-15T12:37:33.759Z,29.93
2017-06-15T12:42:31.324Z,30.18
2017-06-15T12:47:30.081Z,30.46
2017-06-15T12:52:24.759Z,30.24
2017-06-15T12:57:21.477Z,30.15
2017-06-15T13:02:15.053Z,29.84
2017-06-15T13:07:11.594Z,29.63
2017-06-15T13:12:07.736Z,29.68
2017-06-15T13:17:03.712Z,29.63
2017-06-15T13:22:00.294Z,30.16
2017-06-15T13:26:56.060Z,29.98
2017-06-15T13:31:51.861Z,29.75
2017-06-15T13:36:47.310Z,29.57
2017-06-15T13:41:43.226Z,29.27
2017-06-15T13:46:38.963Z,29.23
2017-06-15T13:51:34.493Z,29.10
2017-06-15T13:56:31.032Z,28.91
2017-06-15T14:01:26.410Z,28.96
2017-06-15T14:06:23.717Z,28.44
2017-06-15T14:11:19.351Z,28.48
2017-06-15T14:16:15.002Z,28.39
2017-06-15T14:21:10.485Z,28.59
2017-06-15T14:26:06.184Z,28.48
2017-06-15T14:31:02.252Z,28.45
2017-06-15T14:35:57.992Z,28.47
2017-06-15T14:40:53.666Z,28.35
2017-06-15T14:45:49.825Z,28.08
2017-06-15T14:50:45.754Z,28.02
2017-06-15T14:55:41.507Z,28.00
2017-06-15T15:00:39.492Z,28.01
2017-06-15T15:05:35.072Z,28.04
2017-06-15T15:10:30.867Z,27.83
2017-06-15T15:15:27.780Z,27.73
2017-06-15T15:20:23.412Z,26.90
2017-06-15T15:25:20.352Z,24.38
2017-06-15T15:30:15.816Z,22.50
2017-06-15T15:35:10.051Z,22.26
2017-06-15T15:40:05.162Z,22.18
2017-06-15T15:45:01.065Z,22.43
2017-06-15T15:49:57.082Z,22.53
2017-06-15T15:54:52.883Z,22.59
2017-06-15T15:59:48.857Z,22.51
2017-06-15T16:04:45.779Z,22.47
2017-06-15T16:09:42.855Z,22.44
2017-06-15T16:14:38.085Z,22.48
2017-06-15T16:19:34.618Z,22.41
2017-06-15T16:24:31.650Z,22.41
2017-06-15T16:29:27.793Z,22.41
2017-06-15T16:34:25.204Z,22.14
2017-06-15T16:39:20.702Z,21.80
2017-06-15T16:44:17.473Z,21.77
2017-06-15T16:49:14.132Z,21.67
2017-06-15T16:54:09.850Z,21.91
2017-06-15T16:59:06.878Z,21.72
2017-06-15T17:04:02.544Z,21.82
2017-06-15T17:08:59.642Z,21.67
2017-06-15T17:13:56.254Z,21.37
2017-06-15T17:18:51.816Z,21.48
2017-06-15T17:23:49.148Z,21.55
2017-06-15T17:28:44.974Z,21.67
2017-06-15T17:33:41.123Z,21.76
2017-06-15T17:38:38.216Z,21.80
2017-06-15T17:43:35.070Z,21.76
2017-06-15T17:48:32.209Z,21.76
2017-06-15T17:53:27.827Z,21.87
2017-06-15T17:58:23.724Z,21.82
2017-06-15T18:03:20.573Z,21.83
2017-06-15T18:08:16.472Z,22.04
2017-06-15T18:13:14.463Z,22.11
2017-06-15T18:18:11.268Z,22.20
2017-06-15T18:23:06.894Z,22.50
2017-06-15T18:28:03.304Z,22.48
2017-06-15T18:32:59.460Z,22.59
2017-06-15T18:37:55.516Z,22.63
2017-06-15T18:42:51.270Z,22.57
2017-06-15T18:47:49.005Z,22.59
2017-06-15T18:52:44.861Z,22.70
2017-06-15T18:57:40.890Z,22.57
2017-06-15T19:02:37.978Z,22.59
2017-06-15T19:07:33.275Z,22.50
2017-06-15T19:12:29.177Z,22.39
2017-06-15T19:17:25.619Z,22.26
2017-06-15T19:22:22.625Z,22.18
2017-06-15T19:27:19.376Z,22.25
2017-06-15T19:32:15.204Z,22.14
2017-06-15T19:37:10.868Z,22.07
2017-06-15T19:42:07.653Z,22.10
2017-06-15T19:47:04.682Z,21.87
2017-06-15T19:52:01.374Z,21.79
2017-06-15T19:56:56.963Z,21.76
2017-06-15T20:01:53.739Z,21.69
2017-06-15T20:06:50.437Z,21.60
2017-06-15T20:11:45.826Z,21.37
2017-06-15T20:16:41.788Z,21.32
2017-06-15T20:21:37.644Z,21.25
2017-06-15T20:26:33.502Z,21.22
2017-06-15T20:31:29.181Z,21.09
2017-06-15T20:36:26.116Z,21.11
2017-06-15T20:41:22.179Z,20.92
2017-06-15T20:46:19.052Z,20.82
2017-06-15T20:51:14.695Z,20.63
2017-06-15T20:56:10.954Z,20.56
2017-06-15T21:01:06.957Z,20.52
2017-06-15T21:06:02.857Z,20.51
2017-06-15T21:10:58.824Z,20.41
2017-06-15T21:15:54.574Z,20.39
2017-06-15T21:20:51.641Z,20.37
2017-06-15T21:25:47.316Z,20.25
2017-06-15T21:30:44.480Z,20.22
2017-06-15T21:35:40.283Z,20.21
2017-06-15T21:40:35.856Z,20.07
2017-06-15T21:45:31.745Z,20.02
2017-06-15T21:50:28.825Z,19.86
2017-06-15T21:55:24.414Z,19.85
2017-06-15T22:00:20.372Z,19.86
2017-06-15T22:05:16.462Z,19.73
2017-06-15T22:10:12.281Z,19.71
2017-06-15T22:15:08.249Z,19.71
2017-06-15T22:20:04.395Z,19.62
2017-06-15T22:25:00.234Z,19.59
2017-06-15T22:29:56.838Z,19.39
2017-06-15T22:34:52.655Z,19.14
2017-06-15T22:39:48.589Z,19.19
2017-06-15T22:44:44.307Z,19.11
2017-06-15T22:49:40.288Z,18.92
2017-06-15T22:54:36.093Z,18.96
2017-06-15T22:59:31.789Z,18.96
2017-06-15T23:04:28.044Z,18.92
2017-06-15T23:09:23.843Z,18.73
2017-06-15T23:14:20.003Z,18.70
2017-06-15T23:19:15.956Z,18.53
2017-06-15T23:24:11.827Z,18.58
2017-06-15T23:29:08.007Z,18.63
2017-06-15T23:34:04.033Z,18.60
2017-06-15T23:39:00.467Z,18.59
2017-06-15T23:43:57.347Z,18.40
2017-06-15T23:48:55.763Z,18.34
2017-06-15T23:53:51.132Z,18.19
2017-06-15T23:58:47.841Z,18.33
